createdAt,value
2019-02-25T00:02:01.742Z,47.83
2019-02-25T00:04:33.663Z,46.90
2019-02-25T00:07:05.925Z,43.27
2019-02-25T00:09:37.857Z,47.83
2019-02-25T00:12:09.780Z,43.27
2019-02-25T00:14:41.707Z,41.73
2019-02-25T00:17:13.637Z,41.83
2019-02-25T00:19:45.589Z,43.57
2019-02-25T00:22:17.516Z,42.90
2019-02-25T00:24:49.455Z,38.47
2019-02-25T00:27:21.365Z,37.93
2019-02-25T00:29:53.304Z,38.90
2019-02-25T00:32:25.238Z,41.63
2019-02-25T00:34:57.157Z,39.40
2019-02-25T00:37:29.108Z,38.60
2019-02-25T00:40:01.031Z,39.07
2019-02-25T00:42:32.956Z,39.50
2019-02-25T00:45:09.329Z,41.30
2019-02-25T00:47:41.287Z,44.90
2019-02-25T00:50:19.831Z,39.57
2019-02-25T00:52:51.818Z,45.93
2019-02-25T00:55:23.745Z,39.20
2019-02-25T00:57:55.682Z,38.97
2019-02-25T01:00:27.770Z,39.63
2019-02-25T01:02:59.699Z,42.20
2019-02-25T01:05:31.731Z,39.73
2019-02-25T01:08:04.417Z,46.00
2019-02-25T01:10:36.369Z,40.90
2019-02-25T01:13:10.312Z,42.80
2019-02-25T01:15:42.524Z,42.43
2019-02-25T01:18:14.451Z,41.70
2019-02-25T01:20:46.377Z,40.13
2019-02-25T01:23:18.784Z,40.40
2019-02-25T01:25:55.119Z,39.77
2019-02-25T01:28:27.069Z,38.33
2019-02-25T01:30:58.987Z,42.00
2019-02-25T01:33:31.009Z,40.43
2019-02-25T01:36:03.130Z,37.87
2019-02-25T01:38:35.220Z,42.17
2019-02-25T01:41:07.425Z,38.23
2019-02-25T01:43:39.379Z,36.33
2019-02-25T01:46:11.474Z,38.83
2019-02-25T01:48:43.990Z,38.47
2019-02-25T01:51:15.979Z,39.87
2019-02-25T01:53:48.098Z,44.87
2019-02-25T01:56:20.033Z,38.07
2019-02-25T01:58:57.798Z,39.87
2019-02-25T02:01:29.727Z,44.83
2019-02-25T02:04:01.671Z,37.93
2019-02-25T02:06:33.601Z,37.43
2019-02-25T02:09:08.530Z,39.77
2019-02-25T02:11:40.458Z,44.50
2019-02-25T02:14:12.391Z,41.47
2019-02-25T02:16:44.746Z,41.13
2019-02-25T02:19:16.676Z,43.93
2019-02-25T02:21:48.702Z,42.33
2019-02-25T02:24:20.657Z,48.10
2019-02-25T02:26:52.589Z,44.27
2019-02-25T02:29:24.521Z,44.17
2019-02-25T02:31:56.439Z,44.87
2019-02-25T02:34:28.374Z,45.87
2019-02-25T02:37:00.298Z,46.83
2019-02-25T02:39:32.258Z,50.67
2019-02-25T02:42:16.145Z,48.17
2019-02-25T02:44:53.546Z,53.07
2019-02-25T02:47:33.774Z,47.87
2019-02-25T02:50:19.305Z,50.53
2019-02-25T02:52:51.560Z,50.33
2019-02-25T02:55:23.588Z,48.70
2019-02-25T02:57:55.517Z,51.67
2019-02-25T03:00:27.439Z,52.20
2019-02-25T03:02:59.354Z,55.60
2019-02-25T03:05:31.287Z,55.00
2019-02-25T03:08:04.932Z,53.30
2019-02-25T03:10:36.937Z,58.63
2019-02-25T03:13:08.869Z,60.23
2019-02-25T03:15:42.499Z,57.33
2019-02-25T03:18:14.459Z,59.93
2019-02-25T03:20:46.380Z,59.13
2019-02-25T03:23:18.312Z,65.03
2019-02-25T03:25:50.235Z,64.27
2019-02-25T03:28:22.179Z,61.23
2019-02-25T03:30:54.105Z,63.70
2019-02-25T03:33:26.464Z,66.73
2019-02-25T03:35:58.390Z,62.93
2019-02-25T03:38:30.600Z,63.80
2019-02-25T03:41:02.534Z,59.37
2019-02-25T03:43:34.455Z,61.10
2019-02-25T03:46:06.394Z,60.17
2019-02-25T03:48:38.313Z,67.70
2019-02-25T03:51:12.051Z,64.50
2019-02-25T03:53:43.951Z,64.37
2019-02-25T03:56:16.182Z,66.67
2019-02-25T03:58:48.174Z,67.17
2019-02-25T04:01:20.104Z,70.43
2019-02-25T04:03:52.037Z,66.03
2019-02-25T04:06:25.632Z,61.40
2019-02-25T04:08:57.621Z,66.90
2019-02-25T04:11:29.545Z,68.53
2019-02-25T04:14:01.474Z,76.17
2019-02-25T04:16:33.756Z,69.73
2019-02-25T04:19:05.684Z,72.57
2019-02-25T04:21:37.627Z,70.00
2019-02-25T04:24:09.561Z,66.27
2019-02-25T04:26:41.501Z,70.97
2019-02-25T04:29:13.436Z,75.40
2019-02-25T04:31:45.355Z,78.77
2019-02-25T04:34:17.429Z,75.07
2019-02-25T04:36:49.359Z,78.43
2019-02-25T04:39:21.284Z,77.03
2019-02-25T04:41:53.213Z,76.03
2019-02-25T04:44:25.138Z,75.50
2019-02-25T04:46:57.335Z,76.47
2019-02-25T04:49:29.348Z,78.37
2019-02-25T04:52:01.265Z,76.63
2019-02-25T04:54:33.216Z,75.33
2019-02-25T04:57:05.309Z,80.13
2019-02-25T04:59:38.800Z,79.10
2019-02-25T05:02:10.735Z,78.53
2019-02-25T05:04:42.688Z,83.93
2019-02-25T05:07:14.881Z,78.80
2019-02-25T05:09:46.864Z,75.47
2019-02-25T05:12:19.187Z,80.93
2019-02-25T05:14:51.371Z,84.40
2019-02-25T05:17:23.317Z,73.77
2019-02-25T05:19:55.701Z,79.13
2019-02-25T05:22:27.655Z,83.53
2019-02-25T05:24:59.586Z,85.40
2019-02-25T05:27:31.573Z,82.70
2019-02-25T05:30:05.951Z,88.00
2019-02-25T05:32:38.136Z,88.77
2019-02-25T05:35:12.653Z,87.07
2019-02-25T05:37:45.280Z,93.23
2019-02-25T05:40:19.053Z,83.10
2019-02-25T05:42:51.033Z,83.73
2019-02-25T05:45:23.031Z,84.33
2019-02-25T05:47:55.328Z,88.97
2019-02-25T05:50:27.315Z,88.90
2019-02-25T05:52:59.256Z,85.97
2019-02-25T05:55:31.558Z,85.37
2019-02-25T05:58:03.511Z,86.37
2019-02-25T06:00:36.507Z,92.27
2019-02-25T06:03:08.819Z,92.07
2019-02-25T06:05:40.743Z,88.60
2019-02-25T06:08:12.865Z,89.17
2019-02-25T06:10:44.788Z,88.50
2019-02-25T06:13:16.743Z,89.77
2019-02-25T06:15:51.298Z,91.43
2019-02-25T06:18:22.982Z,93.87
2019-02-25T06:20:54.906Z,94.07
2019-02-25T06:23:26.908Z,91.57
2019-02-25T06:25:58.854Z,93.53
2019-02-25T06:28:31.157Z,90.00
2019-02-25T06:31:03.116Z,93.63
2019-02-25T06:33:35.074Z,86.10
2019-02-25T06:36:07.010Z,98.13
2019-02-25T06:38:38.949Z,89.83
2019-02-25T06:41:10.931Z,96.13
2019-02-25T06:43:42.938Z,100.50
2019-02-25T06:46:14.938Z,95.40
2019-02-25T06:48:46.867Z,104.63
2019-02-25T06:51:18.794Z,99.33
2019-02-25T06:53:50.735Z,97.13
2019-02-25T06:56:22.660Z,98.60
2019-02-25T06:58:54.607Z,97.50
2019-02-25T07:01:26.534Z,96.63
2019-02-25T07:04:18.336Z,93.70
2019-02-25T07:06:51.902Z,102.67
2019-02-25T07:09:31.253Z,100.33
2019-02-25T07:12:08.079Z,93.67
2019-02-25T07:14:44.649Z,95.50
2019-02-25T07:17:23.901Z,104.67
2019-02-25T07:20:06.407Z,94.83
2019-02-25T07:22:45.744Z,96.80
2019-02-25T07:25:22.269Z,95.70
2019-02-25T07:28:11.847Z,101.97
2019-02-25T07:30:51.371Z,107.47
2019-02-25T07:33:44.942Z,98.73
2019-02-25T07:36:27.411Z,100.30
2019-02-25T07:39:00.989Z,105.07
2019-02-25T07:41:38.221Z,98.73
2019-02-25T07:44:11.891Z,106.27
2019-02-25T07:46:45.777Z,99.27
2019-02-25T07:49:22.973Z,95.47
2019-02-25T07:51:56.558Z,102.40
2019-02-25T07:54:42.342Z,102.63
2019-02-25T07:57:16.301Z,102.53
2019-02-25T07:59:55.799Z,106.43
2019-02-25T08:02:32.706Z,103.87
2019-02-25T08:05:07.214Z,99.00
2019-02-25T08:07:44.143Z,94.97
2019-02-25T08:10:20.406Z,100.43
2019-02-25T08:12:57.149Z,94.60
2019-02-25T08:15:33.378Z,102.93
2019-02-25T08:18:07.017Z,96.33
2019-02-25T08:20:46.771Z,98.97
2019-02-25T08:23:38.701Z,102.67
2019-02-25T08:26:15.214Z,104.33
2019-02-25T08:28:51.434Z,98.87
2019-02-25T08:31:41.208Z,95.70
2019-02-25T08:34:20.840Z,98.90
2019-02-25T08:37:19.532Z,92.17
2019-02-25T08:40:16.208Z,92.40
2019-02-25T08:42:48.329Z,96.57
2019-02-25T08:45:24.692Z,92.80
2019-02-25T08:48:04.400Z,88.47
2019-02-25T08:50:36.343Z,87.73
2019-02-25T08:53:08.275Z,79.60
2019-02-25T08:55:40.595Z,85.93
2019-02-25T08:58:12.539Z,80.93
2019-02-25T09:00:44.905Z,75.43
2019-02-25T09:03:16.871Z,79.87
2019-02-25T09:05:48.800Z,77.40
2019-02-25T09:08:20.729Z,88.87
2019-02-25T09:10:52.850Z,84.60
2019-02-25T09:13:24.777Z,98.97
2019-02-25T09:15:56.712Z,92.23
2019-02-25T09:18:28.973Z,94.03
2019-02-25T09:21:00.964Z,92.47
2019-02-25T09:23:33.025Z,85.00
2019-02-25T09:26:05.024Z,91.97
2019-02-25T09:28:36.971Z,88.13
2019-02-25T09:31:09.509Z,92.83
2019-02-25T09:33:41.732Z,94.53
2019-02-25T09:36:13.665Z,98.83
2019-02-25T09:38:45.614Z,87.47
2019-02-25T09:41:17.869Z,91.37
2019-02-25T09:43:49.800Z,84.70
2019-02-25T09:46:21.719Z,81.10
2019-02-25T09:48:53.695Z,82.77
2019-02-25T09:51:25.651Z,71.27
2019-02-25T09:53:57.576Z,81.27
2019-02-25T09:56:29.503Z,74.17
2019-02-25T09:59:01.439Z,80.13
2019-02-25T10:01:33.399Z,67.67
2019-02-25T10:04:05.339Z,70.03
2019-02-25T10:06:37.335Z,65.13
2019-02-25T10:09:09.267Z,62.47
2019-02-25T10:11:41.217Z,60.53
2019-02-25T10:14:13.144Z,55.53
2019-02-25T10:16:45.112Z,57.27
2019-02-25T10:19:17.021Z,54.07
2019-02-25T10:21:48.955Z,54.93
2019-02-25T10:24:20.893Z,58.67
2019-02-25T10:26:53.219Z,48.83
2019-02-25T10:29:25.174Z,48.43
2019-02-25T10:31:57.099Z,42.97
2019-02-25T10:34:29.060Z,43.33
2019-02-25T10:37:01.116Z,38.07
2019-02-25T10:39:33.048Z,38.43
2019-02-25T10:42:04.980Z,45.67
2019-02-25T10:44:38.253Z,46.03
2019-02-25T10:47:10.955Z,41.83
2019-02-25T10:49:44.171Z,38.67
2019-02-25T10:52:17.271Z,43.93
2019-02-25T10:54:51.516Z,38.40
2019-02-25T10:57:24.538Z,48.23
2019-02-25T10:59:57.487Z,46.50
2019-02-25T11:02:29.655Z,46.27
2019-02-25T11:05:01.597Z,41.67
2019-02-25T11:07:34.924Z,46.17
2019-02-25T11:10:11.993Z,43.93
2019-02-25T11:12:45.091Z,45.73
2019-02-25T11:15:17.099Z,40.97
2019-02-25T11:17:49.746Z,38.87
2019-02-25T11:20:22.705Z,37.03
2019-02-25T11:22:54.637Z,36.00
2019-02-25T11:25:28.493Z,44.63
2019-02-25T11:28:00.567Z,41.40
2019-02-25T11:30:32.582Z,38.17
2019-02-25T11:33:04.669Z,36.27
2019-02-25T11:35:38.791Z,35.37
2019-02-25T11:38:10.248Z,42.93
2019-02-25T11:40:42.492Z,42.77
2019-02-25T11:43:16.628Z,40.03
2019-02-25T11:45:48.667Z,41.80
2019-02-25T11:48:22.557Z,41.03
2019-02-25T11:50:54.239Z,39.47
2019-02-25T11:53:26.500Z,22.03
2019-02-25T11:56:00.866Z,28.80
2019-02-25T11:58:37.126Z,30.10
2019-02-25T12:01:09.207Z,26.00
2019-02-25T12:03:41.481Z,20.83
2019-02-25T12:06:13.668Z,24.90
2019-02-25T12:08:45.762Z,21.73
2019-02-25T12:11:17.768Z,22.53
2019-02-25T12:13:49.728Z,21.13
2019-02-25T12:16:21.803Z,20.23
2019-02-25T12:18:53.825Z,26.60
2019-02-25T12:21:26.199Z,25.83
2019-02-25T12:23:58.148Z,28.77
2019-02-25T12:26:30.230Z,23.03
2019-02-25T12:29:10.575Z,33.60
2019-02-25T12:31:35.788Z,27.43
2019-02-25T12:34:07.728Z,33.37
2019-02-25T12:36:39.666Z,33.23
2019-02-25T12:39:11.597Z,29.87
2019-02-25T12:41:43.580Z,30.93
2019-02-25T12:44:15.518Z,33.87
2019-02-25T12:46:48.377Z,33.33
2019-02-25T12:49:20.347Z,34.73
2019-02-25T12:51:52.285Z,26.23
2019-02-25T12:54:24.220Z,25.87
2019-02-25T12:56:56.158Z,27.97
2019-02-25T12:59:28.127Z,25.53
2019-02-25T13:02:00.084Z,30.83
2019-02-25T13:04:32.119Z,27.83
2019-02-25T13:07:04.336Z,29.87
2019-02-25T13:09:36.306Z,26.30
2019-02-25T13:12:08.533Z,27.93
2019-02-25T13:14:40.647Z,33.73
2019-02-25T13:17:12.584Z,33.20
2019-02-25T13:19:44.647Z,33.33
2019-02-25T13:22:16.599Z,35.63
2019-02-25T13:24:49.007Z,33.43
2019-02-25T13:27:21.075Z,35.13
2019-02-25T13:29:53.923Z,34.93
2019-02-25T13:32:26.218Z,35.33
2019-02-25T13:34:58.163Z,37.20
2019-02-25T13:37:30.871Z,40.67
2019-02-25T13:40:03.025Z,36.90
2019-02-25T13:42:34.948Z,35.10
2019-02-25T13:45:14.614Z,34.80
2019-02-25T13:47:46.650Z,40.80
2019-02-25T13:50:19.742Z,36.83
2019-02-25T13:52:51.683Z,34.00
2019-02-25T13:55:23.876Z,35.83
2019-02-25T13:57:57.638Z,36.50
2019-02-25T14:00:29.849Z,41.57
2019-02-25T14:03:03.346Z,46.33
2019-02-25T14:05:36.874Z,59.87
2019-02-25T14:08:08.891Z,57.00
2019-02-25T14:10:41.122Z,72.33
2019-02-25T14:13:13.189Z,76.33
2019-02-25T14:15:45.448Z,71.43
2019-02-25T14:18:18.104Z,75.93
2019-02-25T14:20:50.095Z,81.87
2019-02-25T14:23:22.441Z,79.90
2019-02-25T14:25:54.585Z,87.07
2019-02-25T14:28:26.629Z,95.97
2019-02-25T14:30:59.304Z,100.27
2019-02-25T14:33:35.635Z,110.57
2019-02-25T14:36:05.040Z,107.93
2019-02-25T14:38:37.299Z,115.57
2019-02-25T14:41:11.714Z,121.80
2019-02-25T14:43:47.043Z,123.97
2019-02-25T14:46:21.439Z,117.53
2019-02-25T14:48:51.111Z,123.97
2019-02-25T14:51:23.053Z,124.57
2019-02-25T14:53:55.048Z,127.80
2019-02-25T14:56:27.133Z,126.03
2019-02-25T14:59:00.622Z,111.63
2019-02-25T15:01:32.839Z,125.27
2019-02-25T15:04:06.479Z,116.93
2019-02-25T15:06:38.700Z,118.17
2019-02-25T15:09:12.506Z,120.10
2019-02-25T15:11:44.801Z,110.67
2019-02-25T15:14:17.082Z,115.17
2019-02-25T15:16:50.100Z,122.00
2019-02-25T15:19:22.925Z,132.30
2019-02-25T15:21:56.445Z,118.90
2019-02-25T15:24:29.165Z,124.00
2019-02-25T15:27:02.391Z,117.60
2019-02-25T15:29:37.042Z,122.87
2019-02-25T15:32:09.152Z,117.87
2019-02-25T15:34:41.169Z,114.67
2019-02-25T15:37:13.971Z,124.97
2019-02-25T15:39:46.553Z,121.33
2019-02-25T15:42:19.138Z,126.60
2019-02-25T15:44:51.785Z,132.70
2019-02-25T15:47:24.813Z,127.20
2019-02-25T15:49:59.769Z,139.80
2019-02-25T15:52:39.679Z,138.97
2019-02-25T15:55:08.809Z,134.53
2019-02-25T15:57:40.764Z,137.77
2019-02-25T16:00:23.235Z,145.77
2019-02-25T16:02:56.993Z,143.93
2019-02-25T16:05:31.979Z,137.77
2019-02-25T16:08:05.358Z,143.23
2019-02-25T16:10:37.379Z,134.63
2019-02-25T16:13:13.978Z,140.60
2019-02-25T16:15:43.433Z,151.93
2019-02-25T16:18:15.448Z,141.90
2019-02-25T16:20:47.514Z,140.30
2019-02-25T16:23:20.143Z,144.43
2019-02-25T16:25:53.204Z,146.70
2019-02-25T16:28:26.170Z,141.40
2019-02-25T16:30:58.133Z,151.03
2019-02-25T16:33:30.795Z,140.47
2019-02-25T16:36:05.626Z,137.20
2019-02-25T16:38:37.497Z,140.23
2019-02-25T16:41:10.262Z,133.87
2019-02-25T16:43:42.416Z,133.33
2019-02-25T16:46:16.221Z,137.63
2019-02-25T16:48:50.617Z,136.00
2019-02-25T16:51:23.575Z,128.90
2019-02-25T16:53:55.814Z,140.43
2019-02-25T16:56:27.821Z,121.07
2019-02-25T16:59:00.231Z,131.17
2019-02-25T17:01:34.406Z,124.40
2019-02-25T17:04:05.950Z,120.63
2019-02-25T17:06:39.470Z,124.13
2019-02-25T17:09:18.228Z,132.50
2019-02-25T17:11:51.241Z,131.57
2019-02-25T17:14:23.983Z,119.37
2019-02-25T17:16:57.420Z,122.23
2019-02-25T17:19:29.824Z,115.90
2019-02-25T17:22:02.437Z,114.87
2019-02-25T17:24:37.061Z,123.13
2019-02-25T17:27:11.818Z,115.33
2019-02-25T17:29:43.756Z,116.97
2019-02-25T17:32:16.678Z,107.00
2019-02-25T17:34:49.340Z,108.37
2019-02-25T17:37:21.297Z,105.07
2019-02-25T17:39:54.434Z,110.10
2019-02-25T17:42:28.580Z,108.10
2019-02-25T17:45:02.534Z,108.33
2019-02-25T17:47:35.181Z,111.53
2019-02-25T17:50:14.998Z,115.00
2019-02-25T17:52:47.081Z,111.00
2019-02-25T17:55:22.194Z,109.23
2019-02-25T17:57:55.953Z,108.47
2019-02-25T18:00:38.830Z,108.17
2019-02-25T18:03:09.885Z,103.90
2019-02-25T18:05:43.205Z,110.67
2019-02-25T18:08:15.562Z,100.03
2019-02-25T18:10:54.049Z,108.97
2019-02-25T18:13:26.394Z,114.67
2019-02-25T18:15:59.699Z,109.40
2019-02-25T18:18:31.629Z,110.50
2019-02-25T18:21:03.922Z,102.80
2019-02-25T18:23:36.332Z,105.60
2019-02-25T18:26:09.205Z,110.17
2019-02-25T18:28:41.726Z,99.27
2019-02-25T18:31:14.792Z,107.30
2019-02-25T18:33:48.448Z,101.30
2019-02-25T18:36:21.918Z,103.00
2019-02-25T18:38:54.847Z,107.27
2019-02-25T18:41:28.118Z,112.63
2019-02-25T18:44:00.796Z,107.57
2019-02-25T18:46:33.079Z,107.67
2019-02-25T18:49:07.274Z,107.17
2019-02-25T18:51:39.516Z,108.80
2019-02-25T18:54:11.596Z,114.77
2019-02-25T18:56:44.634Z,116.93
2019-02-25T18:59:17.948Z,118.13
2019-02-25T19:01:51.972Z,153.57
2019-02-25T19:04:24.125Z,166.17
2019-02-25T19:06:57.655Z,128.43
2019-02-25T19:09:29.787Z,112.37
2019-02-25T19:12:02.058Z,118.10
2019-02-25T19:14:34.419Z,116.40
2019-02-25T19:17:06.931Z,115.70
2019-02-25T19:19:41.215Z,123.00
2019-02-25T19:22:15.815Z,118.77
2019-02-25T19:24:54.617Z,116.20
2019-02-25T19:27:27.781Z,125.80
2019-02-25T19:30:02.807Z,126.87
2019-02-25T19:32:35.921Z,119.60
2019-02-25T19:35:10.882Z,127.50
2019-02-25T19:37:44.508Z,118.27
2019-02-25T19:40:24.434Z,126.37
2019-02-25T19:42:57.642Z,125.77
2019-02-25T19:45:30.368Z,127.10
2019-02-25T19:48:04.666Z,128.17
2019-02-25T19:50:38.554Z,122.20
2019-02-25T19:53:12.518Z,122.53
2019-02-25T19:55:46.181Z,119.87
2019-02-25T19:58:18.044Z,118.57
2019-02-25T20:00:52.915Z,126.37
2019-02-25T20:03:23.614Z,126.73
2019-02-25T20:05:56.394Z,127.30
2019-02-25T20:08:28.484Z,131.80
2019-02-25T20:11:00.722Z,124.37
2019-02-25T20:13:32.661Z,125.33
2019-02-25T20:16:07.812Z,122.57
2019-02-25T20:18:40.322Z,124.90
2019-02-25T20:21:13.232Z,123.97
2019-02-25T20:23:47.050Z,126.57
2019-02-25T20:26:20.046Z,129.70
2019-02-25T20:28:52.441Z,126.30
2019-02-25T20:31:24.399Z,125.73
2019-02-25T20:33:57.365Z,120.13
2019-02-25T20:36:30.635Z,120.97
2019-02-25T20:39:04.347Z,122.37
2019-02-25T20:41:36.597Z,121.70
2019-02-25T20:44:08.863Z,124.17
2019-02-25T20:46:40.789Z,118.97
2019-02-25T20:49:16.124Z,123.97
2019-02-25T20:51:47.947Z,126.70
2019-02-25T20:54:21.103Z,121.83
2019-02-25T20:56:55.369Z,134.70
2019-02-25T20:59:28.245Z,123.27
2019-02-25T21:02:00.949Z,123.57
2019-02-25T21:04:36.504Z,133.93
2019-02-25T21:07:08.317Z,123.00
2019-02-25T21:09:42.161Z,134.93
2019-02-25T21:12:15.678Z,127.63
2019-02-25T21:14:47.740Z,125.00
2019-02-25T21:17:19.748Z,123.47
2019-02-25T21:19:51.874Z,127.50
2019-02-25T21:22:27.000Z,123.13
2019-02-25T21:24:58.485Z,120.10
2019-02-25T21:27:32.511Z,118.27
2019-02-25T21:30:20.354Z,127.10
2019-02-25T21:32:54.125Z,124.33
2019-02-25T21:35:28.241Z,113.87
2019-02-25T21:37:59.627Z,124.00
2019-02-25T21:40:32.534Z,112.07
2019-02-25T21:43:04.551Z,117.23
2019-02-25T21:45:36.530Z,108.07
2019-02-25T21:48:08.496Z,115.23
2019-02-25T21:50:42.601Z,111.47
2019-02-25T21:53:16.589Z,106.17
2019-02-25T21:55:51.121Z,114.50
2019-02-25T21:58:25.229Z,111.87
2019-02-25T22:00:56.985Z,113.03
2019-02-25T22:03:28.938Z,111.70
2019-02-25T22:06:02.620Z,111.43
2019-02-25T22:08:36.066Z,112.30
2019-02-25T22:11:13.043Z,102.37
2019-02-25T22:13:42.196Z,108.53
2019-02-25T22:16:14.218Z,104.00
2019-02-25T22:18:48.315Z,106.13
2019-02-25T22:21:21.184Z,117.07
2019-02-25T22:23:56.156Z,103.83
2019-02-25T22:26:29.116Z,101.87
2019-02-25T22:29:01.950Z,104.40
2019-02-25T22:31:35.376Z,107.87
2019-02-25T22:34:08.861Z,105.37
2019-02-25T22:36:43.771Z,100.93
2019-02-25T22:39:15.064Z,105.30
2019-02-25T22:41:48.767Z,108.73
2019-02-25T22:44:22.607Z,102.27
2019-02-25T22:46:55.168Z,102.67
2019-02-25T22:49:28.822Z,97.57
2019-02-25T22:52:02.804Z,92.43
2019-02-25T22:54:37.054Z,98.07
2019-02-25T22:57:08.098Z,95.07
2019-02-25T22:59:40.066Z,94.23
2019-02-25T23:02:12.430Z,89.77
2019-02-25T23:04:45.177Z,93.70
2019-02-25T23:07:20.050Z,87.17
2019-02-25T23:09:52.310Z,89.63
2019-02-25T23:12:27.211Z,96.23
2019-02-25T23:15:00.947Z,89.97
2019-02-25T23:17:35.189Z,90.60
2019-02-25T23:20:11.189Z,87.77
2019-02-25T23:22:43.200Z,93.43
2019-02-25T23:25:15.159Z,84.30
2019-02-25T23:27:47.102Z,86.67
2019-02-25T23:30:21.357Z,83.13
2019-02-25T23:32:54.554Z,81.60
2019-02-25T23:35:27.015Z,82.17
2019-02-25T23:38:00.854Z,80.37
2019-02-25T23:40:35.366Z,78.00
2019-02-25T23:43:07.493Z,81.93
2019-02-25T23:45:42.128Z,84.67
2019-02-25T23:48:14.290Z,78.07
2019-02-25T23:50:47.956Z,84.33
2019-02-25T23:53:19.887Z,77.23
2019-02-25T23:55:53.849Z,84.13
2019-02-25T23:58:25.896Z,79.03
